Pellston Regional Airport of Emmet County Airport
KPLN : now visible

Airfield :











YOU CAN JOIN US ON...

 
LOGIN :

Register | Disclaimer

   EN    FR    IT 

 









Legend :    VFR   Marginal VFR   IFR   Intensive IFR   Very Intensive IFR
Visi :
Ceiling :
>= 8 km
>= 3000ft
5 to 8 km
1000 to 3000 ft
1500m to 5 km
500 to 1000 ft
800 to 1500m
200 to 500 ft
< 800m
< 200 ft
Symbols :   Thunderstorms  Fog  Heavy snow  Heavy precipitations  Wind > 20 kt






- Airport Elevation : 721 ft
- IATA code : PLN


KPLN - Pellston Regional of Emmet County

CURRENT METAR :
  • 180854Z AUTO 31003KT 10SM CLR M01/M02 A2991 RMK AO2 SLP134 T10111022 56005

EXPIRED METARs :
  • 180754Z AUTO 27004KT 10SM CLR M01/M03 A2991 RMK AO2 SLP135 T10111028
  • 180654Z AUTO 28003KT 10SM CLR M02/M03 A2992 RMK AO2 SLP137 T10171028

TAF KPLN
Valid from the 18 at 06:00 until the 19 at 06:00 UTC


180520Z 1806/1906 VRB03KT P6SM SCT150
FM181000 00000KT P6SM FEW080
FM181700 29005KT P6SM FEW250
FM190100 VRB03KT P6SM FEW200
FM190500 17004KT P6SM SCT070 BKN150
KZMP FIR / North America



MET'MAP, your aeronautical weather chart ! - Copyright ORBIFLY December 2007 - Disclaimer

ORBIFLY MET'MAP TEAM :

Programming & Development : Alexandra Zaïnal
Concept & original design : Baudouin d'Aumeries
Assistance for programming : Marc-Olivier Méhu
Technical & hardware support : Manuel Goepfert

Contact : metmap@orbifly.com




SOURCES & CREDITS :

   NOAA       Earth
Advisory